sensor_id;sensor_type;location;lat;lon;timestamp;P1;durP1;ratioP1;P2;durP2;ratioP2
11141;SDS011;5625;50.122;19.864;2023-07-31T00:01:32;2.67;;;2.47;;
11141;SDS011;5625;50.122;19.864;2023-07-31T00:04:01;2.97;;;2.67;;
11141;SDS011;5625;50.122;19.864;2023-07-31T00:06:29;2.60;;;2.40;;
11141;SDS011;5625;50.122;19.864;2023-07-31T00:08:57;2.60;;;2.40;;
11141;SDS011;5625;50.122;19.864;2023-07-31T00:11:25;3.70;;;2.70;;
11141;SDS011;5625;50.122;19.864;2023-07-31T00:13:53;3.20;;;2.20;;
11141;SDS011;5625;50.122;19.864;2023-07-31T00:16:23;3.33;;;2.93;;
11141;SDS011;5625;50.122;19.864;2023-07-31T00:18:52;3.10;;;2.80;;
11141;SDS011;5625;50.122;19.864;2023-07-31T00:21:20;3.03;;;2.73;;
11141;SDS011;5625;50.122;19.864;2023-07-31T00:23:51;2.60;;;2.40;;
11141;SDS011;5625;50.122;19.864;2023-07-31T00:26:19;2.93;;;2.73;;
11141;SDS011;5625;50.122;19.864;2023-07-31T00:28:50;3.60;;;2.90;;
11141;SDS011;5625;50.122;19.864;2023-07-31T00:31:18;3.47;;;3.17;;
11141;SDS011;5625;50.122;19.864;2023-07-31T00:33:48;4.83;;;3.00;;
11141;SDS011;5625;50.122;19.864;2023-07-31T00:36:16;2.90;;;2.60;;
11141;SDS011;5625;50.122;19.864;2023-07-31T00:38:45;2.87;;;2.67;;
11141;SDS011;5625;50.122;19.864;2023-07-31T00:41:13;4.10;;;3.30;;
11141;SDS011;5625;50.122;19.864;2023-07-31T00:43:41;5.90;;;3.10;;
11141;SDS011;5625;50.122;19.864;2023-07-31T00:46:09;3.83;;;3.07;;
11141;SDS011;5625;50.122;19.864;2023-07-31T00:48:38;3.20;;;2.90;;
11141;SDS011;5625;50.122;19.864;2023-07-31T00:51:08;5.00;;;2.90;;
11141;SDS011;5625;50.122;19.864;2023-07-31T00:53:37;3.43;;;2.83;;
11141;SDS011;5625;50.122;19.864;2023-07-31T00:56:09;3.27;;;2.87;;
11141;SDS011;5625;50.122;19.864;2023-07-31T00:58:39;3.37;;;3.07;;
11141;SDS011;5625;50.122;19.864;2023-07-31T01:01:07;3.03;;;2.73;;
11141;SDS011;5625;50.122;19.864;2023-07-31T01:03:36;4.63;;;3.00;;
11141;SDS011;5625;50.122;19.864;2023-07-31T01:06:07;2.90;;;2.70;;
11141;SDS011;5625;50.122;19.864;2023-07-31T01:08:44;2.83;;;2.63;;
11141;SDS011;5625;50.122;19.864;2023-07-31T01:11:25;2.77;;;2.57;;
11141;SDS011;5625;50.122;19.864;2023-07-31T01:13:55;2.93;;;2.70;;
11141;SDS011;5625;50.122;19.864;2023-07-31T01:16:25;3.07;;;2.77;;
11141;SDS011;5625;50.122;19.864;2023-07-31T01:18:53;3.77;;;2.80;;
11141;SDS011;5625;50.122;19.864;2023-07-31T01:21:27;3.40;;;3.10;;
11141;SDS011;5625;50.122;19.864;2023-07-31T01:24:21;3.00;;;2.80;;
11141;SDS011;5625;50.122;19.864;2023-07-31T01:26:55;3.23;;;2.87;;
11141;SDS011;5625;50.122;19.864;2023-07-31T01:29:30;3.07;;;2.87;;
11141;SDS011;5625;50.122;19.864;2023-07-31T01:32:03;5.30;;;2.93;;
11141;SDS011;5625;50.122;19.864;2023-07-31T01:34:33;3.43;;;3.13;;
11141;SDS011;5625;50.122;19.864;2023-07-31T01:37:03;3.97;;;3.33;;
11141;SDS011;5625;50.122;19.864;2023-07-31T01:39:31;3.30;;;3.00;;
11141;SDS011;5625;50.122;19.864;2023-07-31T01:42:00;4.53;;;3.23;;
11141;SDS011;5625;50.122;19.864;2023-07-31T01:44:29;4.70;;;3.20;;
11141;SDS011;5625;50.122;19.864;2023-07-31T01:46:57;3.87;;;2.73;;
11141;SDS011;5625;50.122;19.864;2023-07-31T01:49:26;3.77;;;3.17;;
11141;SDS011;5625;50.122;19.864;2023-07-31T01:51:54;3.53;;;3.23;;
11141;SDS011;5625;50.122;19.864;2023-07-31T01:54:22;4.13;;;3.30;;
11141;SDS011;5625;50.122;19.864;2023-07-31T01:56:50;3.93;;;3.53;;
11141;SDS011;5625;50.122;19.864;2023-07-31T01:59:20;3.50;;;3.20;;
11141;SDS011;5625;50.122;19.864;2023-07-31T02:01:48;3.70;;;3.20;;
11141;SDS011;5625;50.122;19.864;2023-07-31T02:04:19;3.60;;;3.30;;
11141;SDS011;5625;50.122;19.864;2023-07-31T02:06:48;3.83;;;3.00;;
11141;SDS011;5625;50.122;19.864;2023-07-31T02:09:16;4.33;;;3.30;;
11141;SDS011;5625;50.122;19.864;2023-07-31T02:11:44;4.17;;;3.30;;
11141;SDS011;5625;50.122;19.864;2023-07-31T02:14:12;4.30;;;3.30;;
11141;SDS011;5625;50.122;19.864;2023-07-31T02:16:41;6.07;;;3.60;;
11141;SDS011;5625;50.122;19.864;2023-07-31T02:19:10;3.47;;;3.17;;
11141;SDS011;5625;50.122;19.864;2023-07-31T02:21:38;3.50;;;3.27;;
11141;SDS011;5625;50.122;19.864;2023-07-31T02:24:06;4.87;;;3.50;;
11141;SDS011;5625;50.122;19.864;2023-07-31T02:26:34;3.80;;;3.50;;
11141;SDS011;5625;50.122;19.864;2023-07-31T02:29:03;3.90;;;3.60;;
11141;SDS011;5625;50.122;19.864;2023-07-31T02:31:31;5.17;;;3.40;;
11141;SDS011;5625;50.122;19.864;2023-07-31T02:34:00;3.70;;;3.40;;
11141;SDS011;5625;50.122;19.864;2023-07-31T02:36:29;4.23;;;3.53;;
11141;SDS011;5625;50.122;19.864;2023-07-31T02:38:57;4.17;;;3.80;;
11141;SDS011;5625;50.122;19.864;2023-07-31T02:41:25;4.33;;;3.80;;
11141;SDS011;5625;50.122;19.864;2023-07-31T02:43:53;4.43;;;4.03;;
11141;SDS011;5625;50.122;19.864;2023-07-31T02:46:22;4.23;;;3.93;;
11141;SDS011;5625;50.122;19.864;2023-07-31T02:48:51;4.53;;;4.20;;
11141;SDS011;5625;50.122;19.864;2023-07-31T02:51:20;4.23;;;3.93;;
11141;SDS011;5625;50.122;19.864;2023-07-31T02:53:48;5.80;;;4.10;;
11141;SDS011;5625;50.122;19.864;2023-07-31T02:56:16;4.50;;;4.10;;
11141;SDS011;5625;50.122;19.864;2023-07-31T02:58:45;4.83;;;4.33;;
11141;SDS011;5625;50.122;19.864;2023-07-31T03:01:13;5.23;;;4.67;;
11141;SDS011;5625;50.122;19.864;2023-07-31T03:03:41;4.47;;;4.10;;
11141;SDS011;5625;50.122;19.864;2023-07-31T03:06:09;5.23;;;4.00;;
11141;SDS011;5625;50.122;19.864;2023-07-31T03:08:38;4.03;;;3.70;;
11141;SDS011;5625;50.122;19.864;2023-07-31T03:11:06;4.90;;;4.30;;
11141;SDS011;5625;50.122;19.864;2023-07-31T03:13:34;4.20;;;3.83;;
11141;SDS011;5625;50.122;19.864;2023-07-31T03:16:03;4.20;;;3.67;;
11141;SDS011;5625;50.122;19.864;2023-07-31T03:18:31;4.10;;;3.70;;
11141;SDS011;5625;50.122;19.864;2023-07-31T03:20:59;3.90;;;3.53;;
11141;SDS011;5625;50.122;19.864;2023-07-31T03:23:29;4.13;;;3.73;;
11141;SDS011;5625;50.122;19.864;2023-07-31T03:25:59;3.93;;;3.60;;
11141;SDS011;5625;50.122;19.864;2023-07-31T03:28:29;3.87;;;3.47;;
11141;SDS011;5625;50.122;19.864;2023-07-31T03:30:58;3.90;;;3.40;;
11141;SDS011;5625;50.122;19.864;2023-07-31T03:33:26;4.50;;;3.60;;
11141;SDS011;5625;50.122;19.864;2023-07-31T03:35:54;3.57;;;3.27;;
11141;SDS011;5625;50.122;19.864;2023-07-31T03:38:22;4.80;;;3.20;;
11141;SDS011;5625;50.122;19.864;2023-07-31T03:40:50;3.47;;;3.17;;
11141;SDS011;5625;50.122;19.864;2023-07-31T03:43:20;4.97;;;3.47;;
11141;SDS011;5625;50.122;19.864;2023-07-31T03:45:48;3.60;;;3.30;;
11141;SDS011;5625;50.122;19.864;2023-07-31T03:48:16;3.60;;;3.23;;
11141;SDS011;5625;50.122;19.864;2023-07-31T03:50:44;3.83;;;3.20;;
11141;SDS011;5625;50.122;19.864;2023-07-31T03:53:12;3.77;;;3.47;;
11141;SDS011;5625;50.122;19.864;2023-07-31T03:55:40;3.30;;;3.00;;
11141;SDS011;5625;50.122;19.864;2023-07-31T03:58:08;3.40;;;3.10;;
11141;SDS011;5625;50.122;19.864;2023-07-31T04:00:39;2.93;;;2.67;;
11141;SDS011;5625;50.122;19.864;2023-07-31T04:03:07;3.00;;;2.80;;
11141;SDS011;5625;50.122;19.864;2023-07-31T04:05:37;3.23;;;2.80;;
11141;SDS011;5625;50.122;19.864;2023-07-31T04:08:05;3.60;;;3.07;;
11141;SDS011;5625;50.122;19.864;2023-07-31T04:10:34;3.63;;;2.63;;
11141;SDS011;5625;50.122;19.864;2023-07-31T04:13:02;3.80;;;2.77;;
11141;SDS011;5625;50.122;19.864;2023-07-31T04:15:30;3.07;;;2.77;;
11141;SDS011;5625;50.122;19.864;2023-07-31T04:17:59;3.60;;;2.83;;
11141;SDS011;5625;50.122;19.864;2023-07-31T04:20:27;2.77;;;2.57;;
11141;SDS011;5625;50.122;19.864;2023-07-31T04:22:55;2.87;;;2.67;;
11141;SDS011;5625;50.122;19.864;2023-07-31T04:25:24;2.90;;;2.70;;
11141;SDS011;5625;50.122;19.864;2023-07-31T04:27:52;3.20;;;2.70;;
11141;SDS011;5625;50.122;19.864;2023-07-31T04:30:20;2.67;;;2.47;;
11141;SDS011;5625;50.122;19.864;2023-07-31T04:32:48;2.60;;;2.40;;
11141;SDS011;5625;50.122;19.864;2023-07-31T04:35:17;3.00;;;2.80;;
11141;SDS011;5625;50.122;19.864;2023-07-31T04:37:45;3.50;;;2.80;;
11141;SDS011;5625;50.122;19.864;2023-07-31T04:40:15;3.93;;;2.50;;
11141;SDS011;5625;50.122;19.864;2023-07-31T04:42:44;3.13;;;2.67;;
11141;SDS011;5625;50.122;19.864;2023-07-31T04:45:12;3.17;;;2.87;;
11141;SDS011;5625;50.122;19.864;2023-07-31T04:47:41;3.20;;;2.90;;
11141;SDS011;5625;50.122;19.864;2023-07-31T04:50:09;3.43;;;2.53;;
11141;SDS011;5625;50.122;19.864;2023-07-31T04:52:39;2.87;;;2.67;;
11141;SDS011;5625;50.122;19.864;2023-07-31T04:55:07;3.20;;;2.90;;
11141;SDS011;5625;50.122;19.864;2023-07-31T04:57:36;4.00;;;2.67;;
11141;SDS011;5625;50.122;19.864;2023-07-31T05:00:04;5.37;;;2.47;;
11141;SDS011;5625;50.122;19.864;2023-07-31T05:02:33;2.63;;;2.40;;
11141;SDS011;5625;50.122;19.864;2023-07-31T05:05:02;2.60;;;2.40;;
11141;SDS011;5625;50.122;19.864;2023-07-31T05:07:32;3.83;;;2.60;;
11141;SDS011;5625;50.122;19.864;2023-07-31T05:10:02;2.50;;;2.30;;
11141;SDS011;5625;50.122;19.864;2023-07-31T05:12:30;3.63;;;3.00;;
11141;SDS011;5625;50.122;19.864;2023-07-31T05:14:58;3.73;;;3.17;;
11141;SDS011;5625;50.122;19.864;2023-07-31T05:17:26;2.83;;;2.63;;
11141;SDS011;5625;50.122;19.864;2023-07-31T05:19:54;3.30;;;2.67;;
11141;SDS011;5625;50.122;19.864;2023-07-31T05:22:23;3.83;;;2.97;;
11141;SDS011;5625;50.122;19.864;2023-07-31T05:24:52;4.00;;;2.73;;
11141;SDS011;5625;50.122;19.864;2023-07-31T05:27:22;5.00;;;3.03;;
11141;SDS011;5625;50.122;19.864;2023-07-31T05:29:50;2.87;;;2.63;;
11141;SDS011;5625;50.122;19.864;2023-07-31T05:32:18;2.90;;;2.60;;
11141;SDS011;5625;50.122;19.864;2023-07-31T05:34:47;4.73;;;2.70;;
11141;SDS011;5625;50.122;19.864;2023-07-31T05:37:15;5.43;;;2.73;;
11141;SDS011;5625;50.122;19.864;2023-07-31T05:39:43;2.47;;;2.27;;
11141;SDS011;5625;50.122;19.864;2023-07-31T05:42:11;2.90;;;2.30;;
11141;SDS011;5625;50.122;19.864;2023-07-31T05:44:41;3.10;;;2.17;;
11141;SDS011;5625;50.122;19.864;2023-07-31T05:47:09;4.00;;;2.47;;
11141;SDS011;5625;50.122;19.864;2023-07-31T05:49:37;3.20;;;2.80;;
11141;SDS011;5625;50.122;19.864;2023-07-31T05:52:05;3.17;;;2.97;;
11141;SDS011;5625;50.122;19.864;2023-07-31T05:54:34;4.03;;;3.60;;
11141;SDS011;5625;50.122;19.864;2023-07-31T05:57:02;4.23;;;3.60;;
11141;SDS011;5625;50.122;19.864;2023-07-31T05:59:31;5.60;;;3.83;;
11141;SDS011;5625;50.122;19.864;2023-07-31T06:02:00;4.77;;;4.33;;
11141;SDS011;5625;50.122;19.864;2023-07-31T06:04:30;4.53;;;4.13;;
11141;SDS011;5625;50.122;19.864;2023-07-31T06:06:58;4.73;;;4.20;;
11141;SDS011;5625;50.122;19.864;2023-07-31T06:09:27;4.40;;;3.97;;
11141;SDS011;5625;50.122;19.864;2023-07-31T06:11:55;5.87;;;4.13;;
11141;SDS011;5625;50.122;19.864;2023-07-31T06:14:23;4.90;;;3.80;;
11141;SDS011;5625;50.122;19.864;2023-07-31T06:16:54;4.90;;;3.93;;
11141;SDS011;5625;50.122;19.864;2023-07-31T06:19:23;5.40;;;4.10;;
11141;SDS011;5625;50.122;19.864;2023-07-31T06:21:55;4.77;;;4.30;;
11141;SDS011;5625;50.122;19.864;2023-07-31T06:24:23;6.47;;;4.30;;
11141;SDS011;5625;50.122;19.864;2023-07-31T06:26:54;4.43;;;3.57;;
11141;SDS011;5625;50.122;19.864;2023-07-31T06:29:23;5.83;;;4.00;;
11141;SDS011;5625;50.122;19.864;2023-07-31T06:31:51;5.07;;;4.00;;
11141;SDS011;5625;50.122;19.864;2023-07-31T06:34:20;3.87;;;3.57;;
11141;SDS011;5625;50.122;19.864;2023-07-31T06:36:49;4.93;;;3.40;;
11141;SDS011;5625;50.122;19.864;2023-07-31T06:39:17;4.87;;;3.47;;
11141;SDS011;5625;50.122;19.864;2023-07-31T06:41:45;3.57;;;3.23;;
11141;SDS011;5625;50.122;19.864;2023-07-31T06:44:13;3.63;;;2.93;;
11141;SDS011;5625;50.122;19.864;2023-07-31T06:46:42;3.30;;;2.57;;
11141;SDS011;5625;50.122;19.864;2023-07-31T06:49:10;3.20;;;2.70;;
11141;SDS011;5625;50.122;19.864;2023-07-31T06:51:42;2.83;;;2.40;;
11141;SDS011;5625;50.122;19.864;2023-07-31T06:54:11;3.00;;;2.70;;
11141;SDS011;5625;50.122;19.864;2023-07-31T06:56:39;4.57;;;2.40;;
11141;SDS011;5625;50.122;19.864;2023-07-31T06:59:08;2.83;;;2.47;;
11141;SDS011;5625;50.122;19.864;2023-07-31T07:01:36;2.93;;;2.57;;
11141;SDS011;5625;50.122;19.864;2023-07-31T07:04:04;4.13;;;2.50;;
11141;SDS011;5625;50.122;19.864;2023-07-31T07:06:32;3.00;;;2.70;;
11141;SDS011;5625;50.122;19.864;2023-07-31T07:09:00;4.77;;;2.90;;
11141;SDS011;5625;50.122;19.864;2023-07-31T07:11:30;4.93;;;3.10;;
11141;SDS011;5625;50.122;19.864;2023-07-31T07:13:59;4.47;;;2.90;;
11141;SDS011;5625;50.122;19.864;2023-07-31T07:16:28;3.33;;;2.30;;
11141;SDS011;5625;50.122;19.864;2023-07-31T07:18:56;3.57;;;2.57;;
11141;SDS011;5625;50.122;19.864;2023-07-31T07:21:30;2.70;;;2.50;;
11141;SDS011;5625;50.122;19.864;2023-07-31T07:23:58;5.10;;;2.80;;
11141;SDS011;5625;50.122;19.864;2023-07-31T07:26:27;3.57;;;2.77;;
11141;SDS011;5625;50.122;19.864;2023-07-31T07:28:56;3.10;;;2.50;;
11141;SDS011;5625;50.122;19.864;2023-07-31T07:31:27;3.70;;;2.40;;
11141;SDS011;5625;50.122;19.864;2023-07-31T07:33:55;2.77;;;2.20;;
11141;SDS011;5625;50.122;19.864;2023-07-31T07:36:24;5.70;;;2.80;;
11141;SDS011;5625;50.122;19.864;2023-07-31T07:38:55;3.50;;;2.37;;
11141;SDS011;5625;50.122;19.864;2023-07-31T07:41:24;3.47;;;2.53;;
11141;SDS011;5625;50.122;19.864;2023-07-31T07:43:52;3.43;;;2.33;;
11141;SDS011;5625;50.122;19.864;2023-07-31T07:46:21;4.37;;;2.70;;
11141;SDS011;5625;50.122;19.864;2023-07-31T07:48:49;2.70;;;2.23;;
11141;SDS011;5625;50.122;19.864;2023-07-31T07:51:17;3.13;;;2.40;;
11141;SDS011;5625;50.122;19.864;2023-07-31T07:53:46;3.97;;;2.30;;
11141;SDS011;5625;50.122;19.864;2023-07-31T07:56:14;4.37;;;2.37;;
11141;SDS011;5625;50.122;19.864;2023-07-31T07:58:42;2.87;;;2.10;;
11141;SDS011;5625;50.122;19.864;2023-07-31T08:01:10;4.70;;;2.47;;
11141;SDS011;5625;50.122;19.864;2023-07-31T08:03:39;6.27;;;2.57;;
11141;SDS011;5625;50.122;19.864;2023-07-31T08:06:08;2.87;;;2.40;;
11141;SDS011;5625;50.122;19.864;2023-07-31T08:08:36;4.93;;;2.27;;
11141;SDS011;5625;50.122;19.864;2023-07-31T08:11:05;3.20;;;2.23;;
11141;SDS011;5625;50.122;19.864;2023-07-31T08:13:33;4.30;;;2.60;;
11141;SDS011;5625;50.122;19.864;2023-07-31T08:16:03;5.40;;;2.43;;
11141;SDS011;5625;50.122;19.864;2023-07-31T08:18:35;3.70;;;2.30;;
11141;SDS011;5625;50.122;19.864;2023-07-31T08:21:07;4.40;;;2.30;;
11141;SDS011;5625;50.122;19.864;2023-07-31T08:23:35;5.10;;;2.20;;
11141;SDS011;5625;50.122;19.864;2023-07-31T08:26:03;2.97;;;2.33;;
11141;SDS011;5625;50.122;19.864;2023-07-31T08:28:31;3.90;;;2.30;;
11141;SDS011;5625;50.122;19.864;2023-07-31T08:30:59;3.33;;;2.30;;
11141;SDS011;5625;50.122;19.864;2023-07-31T08:33:28;5.33;;;2.53;;
11141;SDS011;5625;50.122;19.864;2023-07-31T08:35:56;3.10;;;2.00;;
11141;SDS011;5625;50.122;19.864;2023-07-31T08:38:26;4.27;;;2.17;;
11141;SDS011;5625;50.122;19.864;2023-07-31T08:40:56;2.77;;;2.13;;
11141;SDS011;5625;50.122;19.864;2023-07-31T08:43:25;7.57;;;2.67;;
11141;SDS011;5625;50.122;19.864;2023-07-31T08:45:54;5.30;;;2.30;;
11141;SDS011;5625;50.122;19.864;2023-07-31T08:48:22;3.77;;;2.20;;
11141;SDS011;5625;50.122;19.864;2023-07-31T08:50:51;4.70;;;2.00;;
11141;SDS011;5625;50.122;19.864;2023-07-31T08:53:20;2.63;;;1.80;;
11141;SDS011;5625;50.122;19.864;2023-07-31T08:55:50;5.63;;;2.10;;
11141;SDS011;5625;50.122;19.864;2023-07-31T08:58:20;5.93;;;2.30;;
11141;SDS011;5625;50.122;19.864;2023-07-31T09:00:49;3.28;;;1.90;;
11141;SDS011;5625;50.122;19.864;2023-07-31T09:03:19;4.05;;;1.80;;
11141;SDS011;5625;50.122;19.864;2023-07-31T09:05:51;3.08;;;1.77;;
11141;SDS011;5625;50.122;19.864;2023-07-31T09:08:22;6.00;;;1.90;;
11141;SDS011;5625;50.122;19.864;2023-07-31T09:10:52;5.13;;;2.00;;
11141;SDS011;5625;50.122;19.864;2023-07-31T09:13:21;4.03;;;2.08;;
11141;SDS011;5625;50.122;19.864;2023-07-31T09:15:52;4.80;;;1.92;;
11141;SDS011;5625;50.122;19.864;2023-07-31T09:18:20;3.65;;;1.92;;
11141;SDS011;5625;50.122;19.864;2023-07-31T09:21:00;3.80;;;1.75;;
11141;SDS011;5625;50.122;19.864;2023-07-31T09:23:39;3.13;;;1.48;;
11141;SDS011;5625;50.122;19.864;2023-07-31T09:26:10;2.50;;;1.50;;
11141;SDS011;5625;50.122;19.864;2023-07-31T09:28:38;4.00;;;1.60;;
11141;SDS011;5625;50.122;19.864;2023-07-31T09:31:11;1.75;;;1.42;;
11141;SDS011;5625;50.122;19.864;2023-07-31T09:33:46;2.40;;;1.58;;
11141;SDS011;5625;50.122;19.864;2023-07-31T09:36:22;2.25;;;1.50;;
11141;SDS011;5625;50.122;19.864;2023-07-31T09:38:51;3.53;;;1.50;;
11141;SDS011;5625;50.122;19.864;2023-07-31T09:41:20;4.53;;;2.05;;
11141;SDS011;5625;50.122;19.864;2023-07-31T09:43:52;2.92;;;1.58;;
11141;SDS011;5625;50.122;19.864;2023-07-31T09:46:21;3.60;;;1.60;;
11141;SDS011;5625;50.122;19.864;2023-07-31T09:48:49;3.03;;;1.63;;
11141;SDS011;5625;50.122;19.864;2023-07-31T09:51:17;2.70;;;1.48;;
11141;SDS011;5625;50.122;19.864;2023-07-31T09:53:53;3.40;;;1.50;;
11141;SDS011;5625;50.122;19.864;2023-07-31T09:56:23;2.90;;;1.50;;
11141;SDS011;5625;50.122;19.864;2023-07-31T09:58:52;3.42;;;1.50;;
11141;SDS011;5625;50.122;19.864;2023-07-31T10:01:22;2.22;;;1.35;;
11141;SDS011;5625;50.122;19.864;2023-07-31T10:03:50;3.45;;;1.25;;
11141;SDS011;5625;50.122;19.864;2023-07-31T10:06:19;3.53;;;1.60;;
11141;SDS011;5625;50.122;19.864;2023-07-31T10:08:47;2.38;;;1.20;;
11141;SDS011;5625;50.122;19.864;2023-07-31T10:11:16;3.90;;;1.50;;
11141;SDS011;5625;50.122;19.864;2023-07-31T10:13:46;2.45;;;1.52;;
11141;SDS011;5625;50.122;19.864;2023-07-31T10:16:14;1.80;;;1.42;;
11141;SDS011;5625;50.122;19.864;2023-07-31T10:18:43;2.97;;;1.52;;
11141;SDS011;5625;50.122;19.864;2023-07-31T10:21:12;2.03;;;1.20;;
11141;SDS011;5625;50.122;19.864;2023-07-31T10:23:41;3.55;;;1.33;;
11141;SDS011;5625;50.122;19.864;2023-07-31T10:26:11;3.78;;;1.67;;
11141;SDS011;5625;50.122;19.864;2023-07-31T10:28:41;2.90;;;1.40;;
11141;SDS011;5625;50.122;19.864;2023-07-31T10:31:12;3.22;;;1.38;;
11141;SDS011;5625;50.122;19.864;2023-07-31T10:33:41;3.20;;;1.38;;
11141;SDS011;5625;50.122;19.864;2023-07-31T10:36:13;4.07;;;1.33;;
11141;SDS011;5625;50.122;19.864;2023-07-31T10:38:42;2.63;;;1.58;;
11141;SDS011;5625;50.122;19.864;2023-07-31T10:41:11;1.48;;;1.38;;
11141;SDS011;5625;50.122;19.864;2023-07-31T10:43:39;2.00;;;1.40;;
11141;SDS011;5625;50.122;19.864;2023-07-31T10:46:07;2.85;;;1.30;;
11141;SDS011;5625;50.122;19.864;2023-07-31T10:48:37;3.78;;;1.42;;
11141;SDS011;5625;50.122;19.864;2023-07-31T10:51:08;4.50;;;1.50;;
11141;SDS011;5625;50.122;19.864;2023-07-31T10:53:37;2.90;;;1.63;;
11141;SDS011;5625;50.122;19.864;2023-07-31T10:56:06;10.02;;;1.73;;
11141;SDS011;5625;50.122;19.864;2023-07-31T10:58:36;2.33;;;1.45;;
11141;SDS011;5625;50.122;19.864;2023-07-31T11:01:05;2.13;;;1.50;;
11141;SDS011;5625;50.122;19.864;2023-07-31T11:03:45;3.13;;;1.50;;
11141;SDS011;5625;50.122;19.864;2023-07-31T11:06:15;3.72;;;1.58;;
11141;SDS011;5625;50.122;19.864;2023-07-31T11:08:45;3.55;;;1.60;;
11141;SDS011;5625;50.122;19.864;2023-07-31T11:11:17;3.25;;;1.40;;
11141;SDS011;5625;50.122;19.864;2023-07-31T11:13:47;2.67;;;1.25;;
11141;SDS011;5625;50.122;19.864;2023-07-31T11:16:17;3.13;;;1.38;;
11141;SDS011;5625;50.122;19.864;2023-07-31T11:18:48;3.05;;;1.40;;
11141;SDS011;5625;50.122;19.864;2023-07-31T11:21:18;5.47;;;1.65;;
11141;SDS011;5625;50.122;19.864;2023-07-31T11:23:47;3.03;;;1.45;;
11141;SDS011;5625;50.122;19.864;2023-07-31T11:26:16;2.30;;;1.20;;
11141;SDS011;5625;50.122;19.864;2023-07-31T11:28:46;2.42;;;1.27;;
11141;SDS011;5625;50.122;19.864;2023-07-31T11:31:15;1.80;;;1.20;;
11141;SDS011;5625;50.122;19.864;2023-07-31T11:33:43;2.20;;;1.40;;
11141;SDS011;5625;50.122;19.864;2023-07-31T11:36:15;2.80;;;1.38;;
11141;SDS011;5625;50.122;19.864;2023-07-31T11:38:44;2.30;;;1.40;;
11141;SDS011;5625;50.122;19.864;2023-07-31T11:41:13;1.73;;;1.23;;
11141;SDS011;5625;50.122;19.864;2023-07-31T11:43:42;3.13;;;1.25;;
11141;SDS011;5625;50.122;19.864;2023-07-31T11:46:11;2.65;;;1.60;;
11141;SDS011;5625;50.122;19.864;2023-07-31T11:48:41;3.38;;;1.40;;
11141;SDS011;5625;50.122;19.864;2023-07-31T11:51:12;3.08;;;1.40;;
11141;SDS011;5625;50.122;19.864;2023-07-31T11:53:43;3.65;;;1.27;;
11141;SDS011;5625;50.122;19.864;2023-07-31T11:56:16;2.67;;;1.40;;
11141;SDS011;5625;50.122;19.864;2023-07-31T11:58:45;3.17;;;1.25;;
11141;SDS011;5625;50.122;19.864;2023-07-31T12:01:18;4.10;;;1.50;;
11141;SDS011;5625;50.122;19.864;2023-07-31T12:03:47;5.03;;;1.48;;
11141;SDS011;5625;50.122;19.864;2023-07-31T12:06:19;3.17;;;1.45;;
11141;SDS011;5625;50.122;19.864;2023-07-31T12:08:47;2.40;;;1.30;;
11141;SDS011;5625;50.122;19.864;2023-07-31T12:11:16;4.50;;;1.65;;
11141;SDS011;5625;50.122;19.864;2023-07-31T12:13:45;1.92;;;1.42;;
11141;SDS011;5625;50.122;19.864;2023-07-31T12:16:13;2.72;;;1.38;;
11141;SDS011;5625;50.122;19.864;2023-07-31T12:18:41;1.52;;;1.30;;
11141;SDS011;5625;50.122;19.864;2023-07-31T12:21:09;2.10;;;1.20;;
11141;SDS011;5625;50.122;19.864;2023-07-31T12:23:40;2.28;;;1.30;;
11141;SDS011;5625;50.122;19.864;2023-07-31T12:26:12;3.47;;;1.40;;
11141;SDS011;5625;50.122;19.864;2023-07-31T12:28:41;3.08;;;1.50;;
11141;SDS011;5625;50.122;19.864;2023-07-31T12:31:10;1.60;;;1.25;;
11141;SDS011;5625;50.122;19.864;2023-07-31T12:33:40;30.83;;;3.67;;
11141;SDS011;5625;50.122;19.864;2023-07-31T12:36:11;16.10;;;2.90;;
11141;SDS011;5625;50.122;19.864;2023-07-31T12:38:42;13.57;;;2.40;;
11141;SDS011;5625;50.122;19.864;2023-07-31T12:41:10;3.88;;;1.30;;
11141;SDS011;5625;50.122;19.864;2023-07-31T12:43:39;3.13;;;1.48;;
11141;SDS011;5625;50.122;19.864;2023-07-31T12:46:08;4.75;;;1.52;;
11141;SDS011;5625;50.122;19.864;2023-07-31T12:48:36;4.93;;;1.40;;
11141;SDS011;5625;50.122;19.864;2023-07-31T12:51:06;4.10;;;1.23;;
11141;SDS011;5625;50.122;19.864;2023-07-31T12:53:34;6.03;;;1.90;;
11141;SDS011;5625;50.122;19.864;2023-07-31T12:56:04;3.50;;;1.30;;
11141;SDS011;5625;50.122;19.864;2023-07-31T12:58:32;2.53;;;1.20;;
11141;SDS011;5625;50.122;19.864;2023-07-31T13:01:00;2.38;;;1.20;;
11141;SDS011;5625;50.122;19.864;2023-07-31T13:03:28;3.33;;;1.48;;
11141;SDS011;5625;50.122;19.864;2023-07-31T13:05:57;4.90;;;1.73;;
11141;SDS011;5625;50.122;19.864;2023-07-31T13:08:25;4.28;;;1.50;;
11141;SDS011;5625;50.122;19.864;2023-07-31T13:10:53;3.95;;;1.60;;
11141;SDS011;5625;50.122;19.864;2023-07-31T13:13:22;4.38;;;1.30;;
11141;SDS011;5625;50.122;19.864;2023-07-31T13:15:50;18.45;;;2.33;;
11141;SDS011;5625;50.122;19.864;2023-07-31T13:18:18;13.27;;;1.65;;
11141;SDS011;5625;50.122;19.864;2023-07-31T13:20:47;3.95;;;1.58;;
11141;SDS011;5625;50.122;19.864;2023-07-31T13:23:15;3.25;;;1.30;;
11141;SDS011;5625;50.122;19.864;2023-07-31T13:25:43;1.95;;;1.30;;
11141;SDS011;5625;50.122;19.864;2023-07-31T13:28:14;3.03;;;1.65;;
11141;SDS011;5625;50.122;19.864;2023-07-31T13:30:45;3.92;;;1.42;;
11141;SDS011;5625;50.122;19.864;2023-07-31T13:33:13;2.92;;;1.33;;
11141;SDS011;5625;50.122;19.864;2023-07-31T13:36:01;2.85;;;1.50;;
11141;SDS011;5625;50.122;19.864;2023-07-31T13:38:29;8.55;;;1.85;;
11141;SDS011;5625;50.122;19.864;2023-07-31T13:40:57;3.78;;;1.33;;
11141;SDS011;5625;50.122;19.864;2023-07-31T13:43:25;6.00;;;1.80;;
11141;SDS011;5625;50.122;19.864;2023-07-31T13:45:55;7.15;;;2.15;;
11141;SDS011;5625;50.122;19.864;2023-07-31T13:48:23;4.93;;;1.52;;
11141;SDS011;5625;50.122;19.864;2023-07-31T13:50:51;1.65;;;1.40;;
11141;SDS011;5625;50.122;19.864;2023-07-31T13:53:19;4.07;;;1.55;;
11141;SDS011;5625;50.122;19.864;2023-07-31T13:55:47;2.33;;;1.73;;
11141;SDS011;5625;50.122;19.864;2023-07-31T13:58:15;3.47;;;1.70;;
11141;SDS011;5625;50.122;19.864;2023-07-31T14:00:47;5.53;;;1.80;;
11141;SDS011;5625;50.122;19.864;2023-07-31T14:03:17;3.35;;;1.50;;
11141;SDS011;5625;50.122;19.864;2023-07-31T14:05:45;4.18;;;1.70;;
11141;SDS011;5625;50.122;19.864;2023-07-31T14:08:13;4.40;;;1.40;;
11141;SDS011;5625;50.122;19.864;2023-07-31T14:10:41;1.88;;;1.48;;
11141;SDS011;5625;50.122;19.864;2023-07-31T14:13:09;2.88;;;1.60;;
11141;SDS011;5625;50.122;19.864;2023-07-31T14:15:37;6.30;;;1.90;;
11141;SDS011;5625;50.122;19.864;2023-07-31T14:18:06;3.35;;;1.60;;
11141;SDS011;5625;50.122;19.864;2023-07-31T14:20:36;2.78;;;1.42;;
11141;SDS011;5625;50.122;19.864;2023-07-31T14:23:04;3.80;;;1.60;;
11141;SDS011;5625;50.122;19.864;2023-07-31T14:25:32;3.17;;;1.70;;
11141;SDS011;5625;50.122;19.864;2023-07-31T14:28:00;3.72;;;1.92;;
11141;SDS011;5625;50.122;19.864;2023-07-31T14:30:29;3.47;;;1.40;;
11141;SDS011;5625;50.122;19.864;2023-07-31T14:32:57;2.63;;;1.45;;
11141;SDS011;5625;50.122;19.864;2023-07-31T14:35:26;4.93;;;1.25;;
11141;SDS011;5625;50.122;19.864;2023-07-31T14:37:56;3.08;;;1.40;;
11141;SDS011;5625;50.122;19.864;2023-07-31T14:40:24;3.47;;;1.40;;
11141;SDS011;5625;50.122;19.864;2023-07-31T14:42:52;7.63;;;1.88;;
11141;SDS011;5625;50.122;19.864;2023-07-31T14:45:20;4.97;;;1.50;;
11141;SDS011;5625;50.122;19.864;2023-07-31T14:47:49;4.93;;;2.00;;
11141;SDS011;5625;50.122;19.864;2023-07-31T14:50:17;3.17;;;1.63;;
11141;SDS011;5625;50.122;19.864;2023-07-31T14:52:47;4.55;;;1.70;;
11141;SDS011;5625;50.122;19.864;2023-07-31T14:55:17;2.90;;;1.63;;
11141;SDS011;5625;50.122;19.864;2023-07-31T14:57:45;2.92;;;1.50;;
11141;SDS011;5625;50.122;19.864;2023-07-31T15:00:14;4.20;;;1.67;;